createdAt,value
2023-02-08T00:02:25.646Z,10.95
2023-02-08T00:04:55.807Z,11.60
2023-02-08T00:07:25.799Z,12.10
2023-02-08T00:09:55.679Z,11.70
2023-02-08T00:12:25.683Z,11.83
2023-02-08T00:14:55.488Z,11.20
2023-02-08T00:17:25.293Z,11.87
2023-02-08T00:19:55.160Z,11.30
2023-02-08T00:22:24.808Z,11.07
2023-02-08T00:24:54.829Z,10.97
2023-02-08T00:27:24.598Z,11.80
2023-02-08T00:29:54.645Z,10.68
2023-02-08T00:32:24.167Z,11.68
2023-02-08T00:34:53.933Z,10.77
2023-02-08T00:37:23.577Z,12.05
2023-02-08T00:39:53.373Z,11.67
2023-02-08T00:42:26.339Z,12.03
2023-02-08T00:44:56.198Z,11.60
2023-02-08T00:47:26.502Z,11.17
2023-02-08T00:49:56.334Z,11.07
2023-02-08T00:52:26.593Z,11.65
2023-02-08T00:54:56.100Z,11.45
2023-02-08T00:57:25.949Z,12.03
2023-02-08T00:59:55.770Z,12.23
2023-02-08T01:02:25.243Z,10.63
2023-02-08T01:04:55.105Z,10.87
2023-02-08T01:07:24.933Z,13.03
2023-02-08T01:09:54.801Z,11.80
2023-02-08T01:12:24.914Z,11.95
2023-02-08T01:14:54.679Z,12.67
2023-02-08T01:17:24.421Z,11.08
2023-02-08T01:19:54.263Z,12.03
2023-02-08T01:22:23.869Z,12.20
2023-02-08T01:24:54.097Z,12.88
2023-02-08T01:27:24.265Z,11.88
2023-02-08T01:29:54.308Z,12.07
2023-02-08T01:32:24.237Z,12.70
2023-02-08T01:34:54.368Z,12.37
2023-02-08T01:37:24.126Z,12.53
2023-02-08T01:39:53.886Z,12.90
2023-02-08T01:42:23.526Z,12.55
2023-02-08T01:45:23.214Z,11.73
2023-02-08T01:47:56.206Z,11.13
2023-02-08T01:50:30.077Z,12.33
2023-02-08T01:53:00.386Z,11.43
2023-02-08T01:55:36.244Z,13.03
2023-02-08T01:58:11.081Z,12.50
2023-02-08T02:00:40.932Z,10.85
2023-02-08T02:03:12.878Z,11.77
2023-02-08T02:05:45.963Z,12.13
2023-02-08T02:08:16.044Z,11.78
2023-02-08T02:10:47.306Z,11.70
2023-02-08T02:13:22.656Z,11.33
2023-02-08T02:15:53.275Z,10.97
2023-02-08T02:18:28.740Z,11.93
2023-02-08T02:21:16.678Z,11.40
2023-02-08T02:24:08.672Z,12.93
2023-02-08T02:26:57.498Z,11.63
2023-02-08T02:29:46.657Z,11.40
2023-02-08T02:32:33.006Z,11.38
2023-02-08T02:35:17.685Z,11.60
2023-02-08T02:38:06.683Z,11.50
2023-02-08T02:40:39.819Z,11.80
2023-02-08T02:43:42.907Z,11.93
2023-02-08T02:46:24.361Z,11.28
2023-02-08T02:49:16.717Z,12.37
2023-02-08T02:52:00.934Z,11.23
2023-02-08T02:54:33.798Z,11.90
2023-02-08T02:57:06.432Z,11.55
2023-02-08T02:59:38.170Z,11.00
2023-02-08T03:02:10.894Z,12.73
2023-02-08T03:04:49.426Z,12.00
2023-02-08T03:07:39.804Z,12.53
2023-02-08T03:10:30.848Z,11.70
2023-02-08T03:13:03.803Z,11.87
2023-02-08T03:15:50.658Z,11.47
2023-02-08T03:21:02.355Z,11.73
2023-02-08T03:23:34.929Z,11.37
2023-02-08T03:29:16.912Z,16.02
2023-02-08T03:31:52.771Z,12.57
2023-02-08T03:34:41.674Z,12.82
2023-02-08T03:37:14.501Z,11.47
2023-02-08T03:39:46.320Z,12.20
2023-02-08T03:42:18.991Z,12.23
2023-02-08T03:44:54.391Z,12.63
2023-02-08T03:47:30.063Z,11.67
2023-02-08T03:50:03.192Z,11.77
2023-02-08T03:52:33.618Z,11.93
2023-02-08T03:55:06.488Z,11.30
2023-02-08T03:57:57.498Z,12.58
2023-02-08T04:00:27.730Z,11.40
2023-02-08T04:03:00.584Z,11.80
2023-02-08T04:05:30.783Z,12.07
2023-02-08T04:08:00.582Z,11.30
2023-02-08T04:10:30.264Z,11.75
2023-02-08T04:13:00.265Z,11.57
2023-02-08T04:15:30.238Z,12.67
2023-02-08T04:18:00.120Z,12.27
2023-02-08T04:20:30.205Z,12.30
2023-02-08T04:23:00.011Z,12.77
2023-02-08T04:25:29.825Z,13.23
2023-02-08T04:27:59.881Z,12.40
2023-02-08T04:30:29.724Z,13.83
2023-02-08T04:33:00.131Z,11.87
2023-02-08T04:35:30.013Z,12.57
2023-02-08T04:37:59.818Z,13.03
2023-02-08T04:40:29.748Z,12.93
2023-02-08T04:42:59.598Z,13.07
2023-02-08T04:45:31.374Z,14.40
2023-02-08T04:48:03.830Z,13.53
2023-02-08T04:50:34.379Z,12.90
2023-02-08T04:53:04.134Z,13.37
2023-02-08T04:55:34.068Z,12.57
2023-02-08T04:58:05.192Z,12.80
2023-02-08T05:00:34.985Z,14.10
2023-02-08T05:03:04.909Z,13.20
2023-02-08T05:05:34.690Z,13.70
2023-02-08T05:08:06.924Z,12.52
2023-02-08T05:10:36.702Z,12.80
2023-02-08T05:13:06.576Z,12.67
2023-02-08T05:15:36.408Z,13.10
2023-02-08T05:18:08.261Z,13.20
2023-02-08T05:20:38.239Z,12.13
2023-02-08T05:23:08.166Z,13.70
2023-02-08T05:25:40.333Z,12.45
2023-02-08T05:28:11.619Z,13.20
2023-02-08T05:30:41.860Z,13.50
2023-02-08T05:33:11.818Z,13.57
2023-02-08T05:35:41.901Z,12.78
2023-02-08T05:38:11.997Z,14.38
2023-02-08T05:40:42.413Z,12.47
2023-02-08T05:43:12.547Z,13.53
2023-02-08T05:45:42.411Z,12.37
2023-02-08T05:48:14.262Z,12.57
2023-02-08T05:50:44.109Z,12.83
2023-02-08T05:53:15.966Z,11.73
2023-02-08T05:55:48.647Z,12.58
2023-02-08T05:58:18.495Z,12.00
2023-02-08T06:00:48.347Z,11.10
2023-02-08T06:03:18.297Z,12.47
2023-02-08T06:05:48.156Z,11.57
2023-02-08T06:08:17.910Z,12.05
2023-02-08T06:10:50.123Z,11.80
2023-02-08T06:13:19.895Z,11.93
2023-02-08T06:15:50.049Z,12.15
2023-02-08T06:18:20.115Z,11.77
2023-02-08T06:20:49.932Z,11.43
2023-02-08T06:23:19.669Z,11.57
2023-02-08T06:25:49.613Z,10.43
2023-02-08T06:28:19.566Z,10.40
2023-02-08T06:30:51.407Z,11.00
2023-02-08T06:33:21.598Z,10.80
2023-02-08T06:35:54.943Z,10.90
2023-02-08T06:38:24.781Z,11.13
2023-02-08T06:40:54.577Z,10.30
2023-02-08T06:43:24.728Z,11.35
2023-02-08T06:45:54.634Z,10.17
2023-02-08T06:48:24.188Z,9.85
2023-02-08T06:50:55.372Z,10.40
2023-02-08T06:53:25.157Z,10.63
2023-02-08T06:55:55.555Z,9.33
2023-02-08T06:58:25.169Z,10.00
2023-02-08T07:00:54.979Z,9.47
2023-02-08T07:03:24.789Z,10.20
2023-02-08T07:06:04.407Z,8.90
2023-02-08T07:08:25.792Z,9.87
2023-02-08T07:10:55.559Z,9.43
2023-02-08T07:13:25.639Z,9.35
2023-02-08T07:15:55.690Z,9.70
2023-02-08T07:18:25.567Z,10.60
2023-02-08T07:20:55.395Z,9.17
2023-02-08T07:23:25.233Z,8.63
2023-02-08T07:26:03.424Z,9.78
2023-02-08T07:28:33.421Z,9.30
2023-02-08T07:31:08.946Z,10.33
2023-02-08T07:33:39.356Z,9.57
2023-02-08T07:36:12.120Z,9.08
2023-02-08T07:38:41.890Z,9.43
2023-02-08T07:41:14.297Z,9.23
2023-02-08T07:43:44.425Z,9.00
2023-02-08T07:46:22.272Z,10.05
2023-02-08T07:48:52.890Z,9.80
2023-02-08T07:51:22.984Z,9.23
2023-02-08T07:53:52.905Z,9.63
2023-02-08T07:56:22.654Z,9.85
2023-02-08T07:58:52.678Z,9.80
2023-02-08T08:01:23.179Z,10.47
2023-02-08T08:03:53.962Z,10.27
2023-02-08T08:06:24.512Z,9.35
2023-02-08T08:08:54.633Z,10.28
2023-02-08T08:11:24.552Z,9.17
2023-02-08T08:13:54.384Z,9.10
2023-02-08T08:16:24.164Z,10.05
2023-02-08T08:18:54.023Z,10.83
2023-02-08T08:21:23.845Z,9.67
2023-02-08T08:23:55.400Z,10.63
2023-02-08T08:26:25.316Z,10.45
2023-02-08T08:28:55.191Z,10.27
2023-02-08T08:31:25.173Z,10.60
2023-02-08T08:33:56.449Z,9.57
2023-02-08T08:36:26.557Z,10.30
2023-02-08T08:38:56.700Z,10.50
2023-02-08T08:41:27.347Z,9.70
2023-02-08T08:43:57.171Z,10.20
2023-02-08T08:46:26.773Z,9.30
2023-02-08T08:48:57.018Z,10.38
2023-02-08T08:51:26.773Z,10.17
2023-02-08T08:53:56.991Z,10.58
2023-02-08T08:56:26.525Z,10.55
2023-02-08T08:58:56.304Z,9.77
2023-02-08T09:01:26.164Z,10.50
2023-02-08T09:03:55.934Z,10.30
2023-02-08T09:06:25.826Z,9.13
2023-02-08T09:08:55.401Z,8.85
2023-02-08T09:11:25.280Z,9.67
2023-02-08T09:13:56.317Z,9.77
2023-02-08T09:16:26.473Z,9.23
2023-02-08T09:18:56.352Z,9.57
2023-02-08T09:21:26.098Z,9.50
2023-02-08T09:23:56.013Z,9.60
2023-02-08T09:26:26.488Z,8.77
2023-02-08T09:28:56.819Z,8.98
2023-02-08T09:31:29.723Z,9.73
2023-02-08T09:34:01.818Z,9.50
2023-02-08T09:36:34.902Z,8.77
2023-02-08T09:39:19.665Z,10.40
2023-02-08T09:42:01.239Z,9.23
2023-02-08T09:45:07.103Z,9.53
2023-02-08T09:47:39.060Z,9.33
2023-02-08T09:50:17.016Z,9.35
2023-02-08T09:52:55.096Z,8.80
2023-02-08T09:55:39.742Z,8.73
2023-02-08T09:58:26.366Z,9.48
2023-02-08T10:00:56.708Z,9.77
2023-02-08T10:03:42.449Z,8.90
2023-02-08T10:06:17.990Z,9.00
2023-02-08T10:08:51.057Z,9.38
2023-02-08T10:13:57.073Z,9.70
2023-02-08T10:16:42.073Z,8.65
2023-02-08T10:19:34.113Z,8.90
2023-02-08T10:22:08.404Z,9.30
2023-02-08T10:24:44.029Z,9.70
2023-02-08T10:27:19.632Z,8.75
2023-02-08T10:30:01.015Z,9.47
2023-02-08T10:32:53.240Z,8.07
2023-02-08T10:35:36.426Z,9.03
2023-02-08T10:38:24.972Z,9.10
2023-02-08T10:41:00.814Z,8.47
2023-02-08T10:43:40.235Z,8.60
2023-02-08T10:46:30.522Z,7.87
2023-02-08T10:49:09.021Z,8.57
2023-02-08T10:51:39.015Z,9.00
2023-02-08T10:54:15.632Z,8.15
2023-02-08T10:56:51.502Z,7.87
2023-02-08T10:59:27.092Z,7.73
2023-02-08T11:01:59.224Z,7.95
2023-02-08T11:04:29.377Z,8.63
2023-02-08T11:06:59.405Z,6.97
2023-02-08T11:09:31.692Z,6.70
2023-02-08T11:12:03.209Z,6.70
2023-02-08T11:14:47.093Z,7.37
2023-02-08T11:17:25.160Z,7.00
2023-02-08T11:19:55.092Z,6.87
2023-02-08T11:22:28.887Z,6.60
2023-02-08T11:25:05.434Z,7.00
2023-02-08T11:27:39.044Z,6.93
2023-02-08T11:30:20.168Z,6.17
2023-02-08T11:32:52.361Z,6.37
2023-02-08T11:35:24.522Z,6.37
2023-02-08T11:37:59.648Z,5.87
2023-02-08T11:40:40.378Z,6.15
2023-02-08T11:43:21.954Z,6.03
2023-02-08T11:45:53.260Z,5.97
2023-02-08T11:48:40.730Z,6.40
2023-02-08T11:51:13.255Z,6.63
2023-02-08T11:53:46.139Z,5.73
2023-02-08T11:56:19.136Z,5.65
2023-02-08T11:59:03.657Z,5.63
2023-02-08T12:01:39.254Z,5.30
2023-02-08T12:04:16.780Z,5.67
2023-02-08T12:06:58.566Z,5.40
2023-02-08T12:10:03.009Z,6.28
2023-02-08T12:12:50.636Z,4.83
2023-02-08T12:15:32.555Z,5.00
2023-02-08T12:18:24.774Z,5.42
2023-02-08T12:21:00.212Z,5.10
2023-02-08T12:23:41.633Z,4.70
2023-02-08T12:26:20.305Z,5.10
2023-02-08T12:28:55.730Z,5.27
2023-02-08T12:31:33.898Z,5.33
2023-02-08T12:37:38.274Z,5.65
2023-02-08T12:40:46.936Z,5.53
2023-02-08T12:43:54.392Z,4.83
2023-02-08T12:49:27.469Z,5.20
2023-02-08T12:52:08.166Z,5.17
2023-02-08T12:55:09.315Z,4.25
2023-02-08T12:57:41.535Z,4.80
2023-02-08T13:00:23.423Z,4.92
2023-02-08T13:02:59.291Z,4.90
2023-02-08T13:05:32.202Z,4.92
2023-02-08T13:08:04.995Z,4.80
2023-02-08T13:10:46.506Z,5.17
2023-02-08T13:13:22.271Z,4.60
2023-02-08T13:16:05.984Z,5.60
2023-02-08T13:18:38.952Z,4.67
2023-02-08T13:21:11.784Z,4.77
2023-02-08T13:23:52.724Z,5.23
2023-02-08T13:26:24.113Z,4.40
2023-02-08T13:28:57.842Z,4.97
2023-02-08T13:31:34.390Z,4.97
2023-02-08T13:34:21.138Z,5.12
2023-02-08T13:36:59.723Z,5.17
2023-02-08T13:39:40.823Z,5.05
2023-02-08T13:42:35.240Z,5.53
2023-02-08T13:45:07.898Z,4.97
2023-02-08T13:47:43.754Z,5.23
2023-02-08T13:50:35.240Z,4.90
2023-02-08T13:53:06.376Z,4.60
2023-02-08T13:55:54.225Z,5.03
2023-02-08T13:58:39.368Z,4.90
2023-02-08T14:01:28.725Z,5.00
2023-02-08T14:04:13.968Z,4.92
2023-02-08T14:06:46.819Z,4.53
2023-02-08T14:09:19.751Z,4.70
2023-02-08T14:11:52.944Z,4.40
2023-02-08T14:14:34.464Z,4.00
2023-02-08T14:17:09.858Z,4.17
2023-02-08T14:19:43.022Z,4.25
2023-02-08T14:22:15.880Z,4.00
2023-02-08T14:24:51.461Z,3.87
2023-02-08T14:27:39.745Z,3.92
2023-02-08T14:30:35.853Z,3.70
2023-02-08T14:33:08.748Z,3.60
2023-02-08T14:35:44.052Z,3.57
2023-02-08T14:38:45.384Z,3.92
2023-02-08T14:41:33.186Z,3.47
2023-02-08T14:44:06.099Z,3.47
2023-02-08T14:46:42.274Z,3.20
2023-02-08T14:49:18.233Z,3.40
2023-02-08T14:54:48.650Z,3.30
2023-02-08T14:57:31.587Z,3.20
2023-02-08T15:00:04.504Z,3.27
2023-02-08T15:02:37.367Z,3.30
2023-02-08T15:05:11.049Z,3.50
2023-02-08T15:07:45.393Z,3.27
2023-02-08T15:10:18.739Z,3.10
2023-02-08T15:12:54.101Z,3.30
2023-02-08T15:15:29.102Z,3.52
2023-02-08T15:17:59.647Z,2.87
2023-02-08T15:20:31.739Z,3.00
2023-02-08T15:23:04.333Z,3.47
2023-02-08T15:25:38.697Z,3.67
2023-02-08T15:28:21.916Z,3.92
2023-02-08T15:30:57.647Z,4.00
2023-02-08T15:33:27.948Z,2.60
2023-02-08T15:36:00.797Z,3.67
2023-02-08T15:38:31.582Z,3.90
2023-02-08T15:41:10.222Z,3.40
2023-02-08T15:43:42.204Z,3.77
2023-02-08T15:46:26.819Z,3.67
2023-02-08T15:48:57.430Z,3.47
2023-02-08T15:51:28.757Z,3.30
2023-02-08T15:53:59.059Z,4.03
2023-02-08T15:56:38.015Z,3.33
2023-02-08T15:59:06.566Z,3.80
2023-02-08T16:01:36.703Z,4.07
2023-02-08T16:04:09.788Z,4.10
2023-02-08T16:06:42.614Z,4.00
2023-02-08T16:09:21.265Z,4.03
2023-02-08T16:11:52.380Z,3.57
2023-02-08T16:14:29.332Z,3.90
2023-02-08T16:16:59.408Z,3.37
2023-02-08T16:19:34.333Z,5.17
2023-02-08T16:22:21.849Z,6.77
2023-02-08T16:24:52.052Z,4.53
2023-02-08T16:27:33.700Z,4.83
2023-02-08T16:30:04.035Z,4.90
2023-02-08T16:32:39.618Z,5.90
2023-02-08T16:35:17.584Z,4.40
2023-02-08T16:37:48.802Z,4.20
2023-02-08T16:40:40.494Z,4.17
2023-02-08T16:43:22.855Z,4.53
2023-02-08T16:46:11.971Z,5.60
2023-02-08T16:48:44.664Z,8.38
2023-02-08T16:51:17.742Z,5.13
2023-02-08T16:53:47.584Z,5.20
2023-02-08T16:56:19.053Z,3.37
2023-02-08T16:58:48.819Z,5.17
2023-02-08T17:01:23.449Z,4.80
2023-02-08T17:03:53.907Z,4.62
2023-02-08T17:06:35.818Z,6.12
2023-02-08T17:09:09.026Z,5.27
2023-02-08T17:11:38.961Z,4.53
2023-02-08T17:14:10.902Z,4.30
2023-02-08T17:16:41.364Z,4.80
2023-02-08T17:19:14.206Z,4.80
2023-02-08T17:21:43.967Z,4.13
2023-02-08T17:24:13.642Z,4.10
2023-02-08T17:26:45.416Z,3.98
2023-02-08T17:29:15.408Z,3.70
2023-02-08T17:31:45.777Z,3.30
2023-02-08T17:34:17.483Z,3.80
2023-02-08T17:36:47.218Z,3.10
2023-02-08T17:39:17.743Z,3.27
2023-02-08T17:41:47.964Z,3.65
2023-02-08T17:44:19.113Z,4.85
2023-02-08T17:46:48.926Z,6.50
2023-02-08T17:49:18.871Z,6.07
2023-02-08T17:51:48.643Z,5.83
2023-02-08T17:54:19.473Z,5.97
2023-02-08T17:56:50.660Z,5.50
2023-02-08T17:59:20.647Z,6.13
2023-02-08T18:01:50.989Z,6.50
2023-02-08T18:04:21.130Z,5.80
2023-02-08T18:06:51.001Z,6.20
2023-02-08T18:09:20.789Z,5.67
2023-02-08T18:11:52.174Z,5.00
2023-02-08T18:14:22.029Z,5.40
2023-02-08T18:16:51.976Z,5.67
2023-02-08T18:19:22.314Z,4.87
2023-02-08T18:21:52.243Z,6.07
2023-02-08T18:24:21.737Z,6.17
2023-02-08T18:26:51.620Z,6.27
2023-02-08T18:29:28.742Z,6.27
2023-02-08T18:31:58.709Z,6.17
2023-02-08T18:34:28.342Z,5.72
2023-02-08T18:36:58.088Z,6.10
2023-02-08T18:39:28.336Z,5.33
2023-02-08T18:41:58.467Z,5.97
2023-02-08T18:44:28.090Z,6.60
2023-02-08T18:46:57.993Z,6.60
2023-02-08T18:49:27.763Z,7.67
2023-02-08T18:51:57.992Z,8.05
2023-02-08T18:54:27.811Z,7.30
2023-02-08T18:56:59.877Z,6.92
2023-02-08T18:59:29.699Z,7.20
2023-02-08T19:01:59.647Z,6.03
2023-02-08T19:04:29.769Z,5.10
2023-02-08T19:06:59.798Z,6.10
2023-02-08T19:09:29.333Z,5.90
2023-02-08T19:11:59.401Z,6.10
2023-02-08T19:14:29.706Z,5.97
2023-02-08T19:16:59.604Z,5.40
2023-02-08T19:19:29.495Z,6.57
2023-02-08T19:21:59.438Z,6.50
2023-02-08T19:24:29.190Z,6.00
2023-02-08T19:26:58.952Z,7.63
2023-02-08T19:29:28.877Z,7.03
2023-02-08T19:31:59.194Z,6.55
2023-02-08T19:34:28.997Z,7.37
2023-02-08T19:36:59.046Z,7.15
2023-02-08T19:39:29.066Z,7.13
2023-02-08T19:41:59.261Z,7.03
2023-02-08T19:44:30.633Z,8.53
2023-02-08T19:47:00.457Z,8.13
2023-02-08T19:49:30.302Z,7.57
2023-02-08T19:52:00.161Z,7.80
2023-02-08T19:54:29.948Z,7.42
2023-02-08T19:56:59.835Z,7.87
2023-02-08T19:59:35.300Z,7.17
2023-02-08T20:02:06.264Z,7.42
2023-02-08T20:04:36.156Z,7.57
2023-02-08T20:07:07.429Z,7.40
2023-02-08T20:09:37.429Z,8.57
2023-02-08T20:12:08.634Z,8.03
2023-02-08T20:14:39.902Z,8.40
2023-02-08T20:17:09.661Z,8.70
2023-02-08T20:19:39.500Z,8.20
2023-02-08T20:22:11.503Z,8.43
2023-02-08T20:24:41.589Z,8.73
2023-02-08T20:27:11.770Z,10.08
2023-02-08T20:29:41.606Z,8.70
2023-02-08T20:32:12.844Z,8.07
2023-02-08T20:34:50.672Z,8.50
2023-02-08T20:37:14.072Z,8.37
2023-02-08T20:39:44.052Z,8.77
2023-02-08T20:42:15.087Z,9.20
2023-02-08T20:44:45.281Z,8.57
2023-02-08T20:47:16.701Z,9.03
2023-02-08T20:49:47.078Z,9.23
2023-02-08T20:52:17.632Z,9.03
2023-02-08T20:54:47.838Z,9.67
2023-02-08T20:57:19.381Z,10.03
2023-02-08T20:59:51.342Z,9.60
2023-02-08T21:02:23.360Z,9.93
2023-02-08T21:04:53.507Z,10.43
2023-02-08T21:07:23.309Z,10.37
2023-02-08T21:09:53.117Z,10.17
2023-02-08T21:12:22.988Z,10.23
2023-02-08T21:14:52.878Z,11.03
2023-02-08T21:17:22.704Z,10.57
2023-02-08T21:19:52.573Z,11.10
2023-02-08T21:22:22.366Z,10.88
2023-02-08T21:24:52.103Z,9.43
2023-02-08T21:27:23.584Z,9.70
2023-02-08T21:29:53.353Z,10.40
2023-02-08T21:32:22.995Z,10.63
2023-02-08T21:34:53.029Z,10.73
2023-02-08T21:37:22.898Z,9.97
2023-02-08T21:39:52.655Z,9.50
2023-02-08T21:42:22.713Z,8.80
2023-02-08T21:44:52.692Z,8.83
2023-02-08T21:47:22.516Z,7.80
2023-02-08T21:50:09.882Z,7.67
2023-02-08T21:52:56.970Z,6.80
2023-02-08T21:55:26.759Z,6.83
2023-02-08T21:57:56.589Z,6.40
2023-02-08T22:00:26.510Z,6.85
2023-02-08T22:02:56.657Z,7.08
2023-02-08T22:05:26.464Z,7.40
2023-02-08T22:07:59.214Z,8.17
2023-02-08T22:10:31.719Z,7.80
2023-02-08T22:13:01.649Z,7.63
2023-02-08T22:15:31.938Z,7.37
2023-02-08T22:18:03.554Z,7.87
2023-02-08T22:20:33.272Z,7.03
2023-02-08T22:23:03.296Z,6.57
2023-02-08T22:25:33.539Z,7.50
2023-02-08T22:28:03.750Z,7.00
2023-02-08T22:30:33.538Z,6.77
2023-02-08T22:33:03.470Z,6.77
2023-02-08T22:35:33.304Z,7.17
2023-02-08T22:38:03.373Z,6.78
2023-02-08T22:40:33.227Z,6.97
2023-02-08T22:43:02.978Z,6.57
2023-02-08T22:45:32.845Z,7.27
2023-02-08T22:48:02.662Z,7.07
2023-02-08T22:50:32.463Z,6.90
2023-02-08T22:53:02.294Z,7.07
2023-02-08T22:55:32.044Z,7.50
2023-02-08T22:58:02.077Z,7.30
2023-02-08T23:00:31.721Z,7.40
2023-02-08T23:03:01.596Z,7.70
2023-02-08T23:05:31.443Z,7.47
2023-02-08T23:08:01.184Z,7.30
2023-02-08T23:10:30.675Z,7.17
2023-02-08T23:13:00.760Z,6.87
2023-02-08T23:15:30.896Z,7.20
2023-02-08T23:18:00.999Z,8.00
2023-02-08T23:20:31.063Z,6.70
2023-02-08T23:23:01.192Z,6.70
2023-02-08T23:25:30.947Z,6.83
2023-02-08T23:28:01.182Z,6.55
2023-02-08T23:30:31.104Z,6.67
2023-02-08T23:33:01.261Z,6.78
2023-02-08T23:35:31.110Z,6.27
2023-02-08T23:38:01.598Z,6.35
2023-02-08T23:40:31.411Z,5.87
2023-02-08T23:43:01.509Z,7.40
2023-02-08T23:45:32.738Z,6.43
2023-02-08T23:48:02.874Z,6.95
2023-02-08T23:50:32.659Z,6.33
2023-02-08T23:53:02.803Z,7.20
2023-02-08T23:55:32.690Z,6.20
2023-02-08T23:58:02.736Z,5.97
